Rifle, CO

4:58 PM MDT on October 25, 2014 (GMT -0600)
Eagle County Regional | Change Station
CLOSE
Current Station
Airport
Location: Eagle,
Elevation: 6539 ft
Nearby Weather Stations

Elev 6539 ft 39.64 °N, 106.91 °W | Updated 1 hour ago

Clear
Clear
73 °F
Feels Like 73 °F
N
10
Wind Variable Wind from West

Today
High -- | Low -- °F
--% Chance of Precip.
Yesterday
High -- | Low -- °F
Precip. -- in
7:31 AM 6:17 PM
Waxing Crescent, 5% visible
Pressure 30.20 in
Visibility 10.0 miles
Clouds Clear
Dew Point 23 °F
Humidity 15%
Rainfall 0.00 in
Snow Depth Not available.
UV 2 out of 12
Pollen 2.10 out of 12
Air Quality Not available.
Flu Activity Sporadic
METAR KEGE 252155Z 28009KT 10SM SKC 23/M05 A3020

More Conditions Fewer Conditions

Pressure 30.20 in
Visibility 10.0 miles
Clouds Clear
Dew Point 23 °F
Humidity 15%
Rainfall 0.00 in
Snow Depth Not available.
UV 2 out of 12
Pollen 2.10 out of 12
Air Quality Not available.
Flu Activity Sporadic
METAR KEGE 252155Z 28009KT 10SM SKC 23/M05 A3020

More Conditions Fewer Conditions

10-Day Weather Forecast

Almanac

Astronomy

Oct. 25, 2014 Rise Set
Actual Time 7:31 AM MDT 6:17 PM MDT
Civil Twilight 7:04 AM MDT 6:45 PM MDT
Nautical Twilight 6:32 AM MDT 7:16 PM MDT
Astronomical Twilight 6:01 AM MDT 7:48 PM MDT
Moon 9:13 AM MDT 7:43 PM MDT
Length of Visible Light 11h 41m
Length of Day
10h 46m
Tomorrow will be 2m 22s shorter.
Waxing Crescent, 5% of the Moon is Illuminated
Today
Waxing Crescent
Oct 30
First Quarter
Nov 6
Full
Nov 14
Last Quarter
Nov 22
New

Today's Extremes

State Highs State Lows

Community

WunderPhotos

Upload Photos

1,765,016 photos uploaded!

Nearby

Snow Depth

Station Depth Elevation
Bison Lake 0 in 10880 ft
Overland Reservoir 0 in 9880 ft
Kiln 0 in 9600 ft
Mccoy Park 10 in 9480 ft
Brumley 0 in 10600 ft

Earthquake Activity

City Distance Mag. Time & Date
No recent earthquake activity has been reported nearby.
Minimum magnitude displayed is 2.5.

Coastal Water Temperatures

Place Temperature
No Stations Reporting

Nearby Weather Stations